createdAt,value
2018-05-24T00:01:15.968Z,14.80
2018-05-24T00:03:44.349Z,14.80
2018-05-24T00:06:12.643Z,14.70
2018-05-24T00:08:40.870Z,14.70
2018-05-24T00:11:09.176Z,14.60
2018-05-24T00:13:37.509Z,14.60
2018-05-24T00:16:05.707Z,14.60
2018-05-24T00:18:33.973Z,14.50
2018-05-24T00:21:02.205Z,14.50
2018-05-24T00:23:30.475Z,14.50
2018-05-24T00:25:58.853Z,14.40
2018-05-24T00:28:27.135Z,14.40
2018-05-24T00:30:56.180Z,14.40
2018-05-24T00:33:24.441Z,14.40
2018-05-24T00:35:52.690Z,14.30
2018-05-24T00:38:22.676Z,14.30
2018-05-24T00:40:50.932Z,14.30
2018-05-24T00:43:19.249Z,14.20
2018-05-24T00:45:48.251Z,14.20
2018-05-24T00:48:17.300Z,14.20
2018-05-24T00:50:45.612Z,14.20
2018-05-24T00:53:15.270Z,14.20
2018-05-24T00:55:43.535Z,14.20
2018-05-24T00:58:11.809Z,14.10
2018-05-24T01:00:40.114Z,14.20
2018-05-24T01:03:08.349Z,14.10
2018-05-24T01:05:36.664Z,14.10
2018-05-24T01:08:05.783Z,14.10
2018-05-24T01:10:34.061Z,14.00
2018-05-24T01:13:02.329Z,14.00
2018-05-24T01:15:30.566Z,14.00
2018-05-24T01:17:59.565Z,14.00
2018-05-24T01:20:27.837Z,14.00
2018-05-24T01:22:56.074Z,13.90
2018-05-24T01:25:25.112Z,13.90
2018-05-24T01:27:54.203Z,13.90
2018-05-24T01:30:23.705Z,13.80
2018-05-24T01:32:51.974Z,13.90
2018-05-24T01:35:21.110Z,13.80
2018-05-24T01:37:50.197Z,13.80
2018-05-24T01:40:18.474Z,13.80
2018-05-24T01:42:46.762Z,13.80
2018-05-24T01:45:15.046Z,13.80
2018-05-24T01:47:43.376Z,13.70
2018-05-24T01:50:11.692Z,13.70
2018-05-24T01:52:39.962Z,13.70
2018-05-24T01:55:11.904Z,13.60
2018-05-24T01:57:41.077Z,13.60
2018-05-24T02:00:10.139Z,13.60
2018-05-24T02:02:39.658Z,13.60
2018-05-24T02:05:09.153Z,13.50
2018-05-24T02:07:38.338Z,13.50
2018-05-24T02:10:06.572Z,13.50
2018-05-24T02:12:35.990Z,13.40
2018-05-24T02:15:04.251Z,13.40
2018-05-24T02:17:32.525Z,13.30
2018-05-24T02:20:00.825Z,13.30
2018-05-24T02:22:29.085Z,13.30
2018-05-24T02:24:57.357Z,13.30
2018-05-24T02:27:25.687Z,13.30
2018-05-24T02:29:55.973Z,13.30
2018-05-24T02:32:24.514Z,13.30
2018-05-24T02:34:52.775Z,13.30
2018-05-24T02:37:21.871Z,13.20
2018-05-24T02:39:50.996Z,13.30
2018-05-24T02:42:19.270Z,13.20
2018-05-24T02:44:48.307Z,13.20
2018-05-24T02:47:16.595Z,13.20
2018-05-24T02:49:46.360Z,13.20
2018-05-24T02:52:15.462Z,13.20
2018-05-24T02:54:43.716Z,13.20
2018-05-24T02:57:12.011Z,13.20
2018-05-24T02:59:40.261Z,13.20
2018-05-24T03:02:09.354Z,13.20
2018-05-24T03:04:38.365Z,13.20
2018-05-24T03:07:06.639Z,13.20
2018-05-24T03:09:34.953Z,13.30
2018-05-24T03:12:03.224Z,13.30
2018-05-24T03:14:31.517Z,13.30
2018-05-24T03:16:59.824Z,13.40
2018-05-24T03:19:28.935Z,13.40
2018-05-24T03:21:57.186Z,13.40
2018-05-24T03:24:26.261Z,13.50
2018-05-24T03:26:54.538Z,13.50
2018-05-24T03:29:22.765Z,13.50
2018-05-24T03:31:51.656Z,13.50
2018-05-24T03:34:19.921Z,13.50
2018-05-24T03:36:48.159Z,13.60
2018-05-24T03:39:17.202Z,13.60
2018-05-24T03:41:45.510Z,13.60
2018-05-24T03:44:13.798Z,13.60
2018-05-24T03:46:43.582Z,13.70
2018-05-24T03:49:12.986Z,13.70
2018-05-24T03:51:41.288Z,13.70
2018-05-24T03:54:09.569Z,13.80
2018-05-24T03:56:38.937Z,13.80
2018-05-24T04:12:48.252Z,13.90
2018-05-24T04:15:17.772Z,14.00
2018-05-24T04:17:46.139Z,14.00
2018-05-24T04:20:15.327Z,14.00
2018-05-24T04:22:43.581Z,14.10
2018-05-24T04:25:11.938Z,14.10
2018-05-24T04:27:40.956Z,14.20
2018-05-24T04:30:09.215Z,14.20
2018-05-24T04:32:38.254Z,14.40
2018-05-24T04:35:06.498Z,14.40
2018-05-24T04:37:34.771Z,14.40
2018-05-24T04:40:03.789Z,14.60
2018-05-24T04:42:32.070Z,14.60
2018-05-24T04:45:00.352Z,14.70
2018-05-24T04:47:28.604Z,15.10
2018-05-24T04:49:57.502Z,16.40
2018-05-24T04:52:25.818Z,17.90
2018-05-24T04:54:55.236Z,19.30
2018-05-24T04:57:23.449Z,20.10
2018-05-24T04:59:51.745Z,20.60
2018-05-24T05:02:20.041Z,21.10
2018-05-24T05:04:49.444Z,22.20
2018-05-24T05:07:21.383Z,22.80
2018-05-24T05:09:49.635Z,23.20
2018-05-24T05:12:17.983Z,23.10
2018-05-24T05:14:48.991Z,23.30
2018-05-24T05:17:17.297Z,23.40
2018-05-24T05:19:45.554Z,23.50
2018-05-24T05:22:13.787Z,23.10
2018-05-24T05:24:42.083Z,23.20
2018-05-24T05:27:11.533Z,23.60
2018-05-24T05:29:39.803Z,23.60
2018-05-24T05:32:08.910Z,24.00
2018-05-24T05:34:37.951Z,23.90
2018-05-24T05:37:06.223Z,23.90
2018-05-24T05:39:34.491Z,23.80
2018-05-24T05:42:02.786Z,23.80
2018-05-24T05:44:31.060Z,24.10
2018-05-24T05:46:59.334Z,24.00
2018-05-24T05:49:27.621Z,24.70
2018-05-24T05:51:56.401Z,25.80
2018-05-24T05:54:25.794Z,25.10
2018-05-24T05:56:54.078Z,24.50
2018-05-24T05:59:23.107Z,24.50
2018-05-24T06:01:51.484Z,25.00
2018-05-24T06:04:19.696Z,25.00
2018-05-24T06:06:47.972Z,25.50
2018-05-24T06:09:16.235Z,26.00
2018-05-24T06:11:45.360Z,26.50
2018-05-24T06:14:13.640Z,26.50
2018-05-24T06:16:41.891Z,27.00
2018-05-24T06:19:10.955Z,27.00
2018-05-24T06:21:39.429Z,27.00
2018-05-24T06:24:07.660Z,27.20
2018-05-24T06:26:35.977Z,27.90
2018-05-24T06:29:04.247Z,28.80
2018-05-24T06:31:32.483Z,29.10
2018-05-24T06:34:00.767Z,28.80
2018-05-24T06:36:29.067Z,27.80
2018-05-24T06:38:57.339Z,27.50
2018-05-24T06:41:25.627Z,26.90
2018-05-24T06:43:53.875Z,26.60
2018-05-24T06:46:22.210Z,26.90
2018-05-24T06:48:50.400Z,27.20
2018-05-24T06:51:18.628Z,27.20
2018-05-24T06:53:46.912Z,27.30
2018-05-24T06:56:15.313Z,27.40
2018-05-24T06:58:43.644Z,27.20
2018-05-24T07:01:11.897Z,27.00
2018-05-24T07:03:40.198Z,27.80
2018-05-24T07:06:08.439Z,28.10
2018-05-24T07:08:37.580Z,28.30
2018-05-24T07:11:09.637Z,28.40
2018-05-24T07:13:37.852Z,28.00
2018-05-24T07:16:06.884Z,27.40
2018-05-24T07:18:36.327Z,27.40
2018-05-24T07:21:04.594Z,27.40
2018-05-24T07:23:32.867Z,27.40
2018-05-24T07:26:01.157Z,28.10
2018-05-24T07:28:29.407Z,28.40
2018-05-24T07:30:57.708Z,28.90
2018-05-24T07:33:26.009Z,28.20
2018-05-24T07:35:55.011Z,28.00
2018-05-24T07:38:23.325Z,27.90
2018-05-24T07:40:51.594Z,28.10
2018-05-24T07:43:21.011Z,27.90
2018-05-24T07:45:49.275Z,28.40
2018-05-24T07:48:17.568Z,28.80
2018-05-24T07:50:45.860Z,28.30
2018-05-24T07:53:14.139Z,27.90
2018-05-24T07:55:42.496Z,27.60
2018-05-24T07:58:10.775Z,26.60
2018-05-24T08:00:39.066Z,25.90
2018-05-24T08:03:07.379Z,25.20
2018-05-24T08:05:36.428Z,23.60
2018-05-24T08:08:04.817Z,23.60
2018-05-24T08:10:33.473Z,23.10
2018-05-24T08:13:01.722Z,22.70
2018-05-24T08:15:29.981Z,22.50
2018-05-24T08:17:59.042Z,22.50
2018-05-24T08:20:27.286Z,22.50
2018-05-24T08:22:55.570Z,22.50
2018-05-24T08:25:23.812Z,22.40
2018-05-24T08:27:52.847Z,22.30
2018-05-24T08:30:22.305Z,22.30
2018-05-24T08:32:51.323Z,22.40
2018-05-24T08:35:19.592Z,22.30
2018-05-24T08:37:47.892Z,22.40
2018-05-24T08:40:16.206Z,22.40
2018-05-24T08:42:44.472Z,22.50
2018-05-24T08:45:12.885Z,22.60
2018-05-24T08:47:41.923Z,22.80
2018-05-24T08:50:10.224Z,22.70
2018-05-24T08:52:39.973Z,23.00
2018-05-24T08:55:08.292Z,23.00
2018-05-24T08:57:36.571Z,23.10
2018-05-24T09:00:04.979Z,23.10
2018-05-24T09:02:33.246Z,23.10
2018-05-24T09:05:01.535Z,23.40
2018-05-24T09:07:30.604Z,23.30
2018-05-24T09:09:58.866Z,23.30
2018-05-24T09:12:27.160Z,23.50
2018-05-24T09:14:56.191Z,23.60
2018-05-24T09:17:24.536Z,23.70
2018-05-24T09:19:52.930Z,23.70
2018-05-24T09:22:21.176Z,23.70
2018-05-24T09:24:49.471Z,23.80
2018-05-24T09:27:17.730Z,23.60
2018-05-24T09:29:45.998Z,23.60
2018-05-24T09:32:14.359Z,23.70
2018-05-24T09:34:42.658Z,23.80
2018-05-24T09:37:10.896Z,23.80
2018-05-24T09:39:39.163Z,23.70
2018-05-24T09:42:07.465Z,23.80
2018-05-24T09:44:35.695Z,23.80
2018-05-24T09:47:04.704Z,23.70
2018-05-24T09:49:32.974Z,23.60
2018-05-24T09:52:02.144Z,23.70
2018-05-24T09:54:30.381Z,23.60
2018-05-24T09:56:58.690Z,23.80
2018-05-24T09:59:26.974Z,23.90
2018-05-24T10:01:55.236Z,23.90
2018-05-24T10:04:23.467Z,24.10
2018-05-24T10:06:51.744Z,24.10
2018-05-24T10:09:20.073Z,24.10
2018-05-24T10:11:48.288Z,24.10
2018-05-24T10:14:16.594Z,24.30
2018-05-24T10:16:46.234Z,24.20
2018-05-24T10:19:14.495Z,24.30
2018-05-24T10:21:42.738Z,24.20
2018-05-24T10:24:11.081Z,24.20
2018-05-24T10:26:40.129Z,24.40
2018-05-24T10:29:08.433Z,24.40
2018-05-24T10:31:36.667Z,24.40
2018-05-24T10:34:04.946Z,24.40
2018-05-24T10:36:34.138Z,24.50
2018-05-24T10:39:02.409Z,24.40
2018-05-24T10:41:30.707Z,24.50
2018-05-24T10:43:58.940Z,24.60
2018-05-24T10:46:27.974Z,24.70
2018-05-24T10:48:56.242Z,24.70
2018-05-24T10:51:24.508Z,24.80
2018-05-24T10:53:52.786Z,25.00
2018-05-24T10:56:21.069Z,25.00
2018-05-24T10:58:49.380Z,24.70
2018-05-24T11:01:18.826Z,24.60
2018-05-24T11:03:47.852Z,24.40
2018-05-24T11:06:16.931Z,24.40
2018-05-24T11:08:45.209Z,24.50
2018-05-24T11:11:13.517Z,24.60
2018-05-24T11:13:42.588Z,24.60
2018-05-24T11:16:11.573Z,24.70
2018-05-24T11:18:39.864Z,24.70
2018-05-24T11:21:09.077Z,24.70
2018-05-24T11:23:38.652Z,24.80
2018-05-24T11:26:07.125Z,24.80
2018-05-24T11:28:35.421Z,24.60
2018-05-24T11:31:03.687Z,24.80
2018-05-24T11:33:31.975Z,24.80
2018-05-24T11:36:00.274Z,24.90
2018-05-24T11:38:28.572Z,24.80
2018-05-24T11:40:56.865Z,24.80
2018-05-24T11:43:26.006Z,24.80
2018-05-24T11:45:54.248Z,24.70
2018-05-24T11:48:22.607Z,24.70
2018-05-24T11:50:50.867Z,24.80
2018-05-24T11:53:19.499Z,24.80
2018-05-24T11:55:48.760Z,24.80
2018-05-24T11:58:17.093Z,24.70
2018-05-24T12:00:45.402Z,24.70
2018-05-24T12:03:13.984Z,24.80
2018-05-24T12:05:42.257Z,24.80
2018-05-24T12:08:10.493Z,24.80
2018-05-24T12:10:38.770Z,24.70
2018-05-24T12:13:07.106Z,25.00
2018-05-24T12:15:35.358Z,25.20
2018-05-24T12:18:04.918Z,25.10
2018-05-24T12:20:33.141Z,25.00
2018-05-24T12:23:01.567Z,25.00
2018-05-24T12:25:31.024Z,25.00
2018-05-24T12:27:59.264Z,25.10
2018-05-24T12:30:28.056Z,25.10
2018-05-24T12:32:56.310Z,25.00
2018-05-24T12:35:24.671Z,24.90
2018-05-24T12:37:52.892Z,25.10
2018-05-24T12:40:21.178Z,25.00
2018-05-24T12:42:49.414Z,25.10
2018-05-24T12:45:17.722Z,25.10
2018-05-24T12:47:45.961Z,25.20
2018-05-24T12:50:14.268Z,25.30
2018-05-24T12:52:42.574Z,25.30
2018-05-24T12:55:10.805Z,25.40
2018-05-24T12:57:39.077Z,25.50
2018-05-24T13:00:07.380Z,25.40
2018-05-24T13:02:35.587Z,25.60
2018-05-24T13:05:04.774Z,25.50
2018-05-24T13:07:33.008Z,25.50
2018-05-24T13:10:01.250Z,25.60
2018-05-24T13:12:30.319Z,25.50
2018-05-24T13:14:58.591Z,25.50
2018-05-24T13:17:26.869Z,25.60
2018-05-24T13:19:55.129Z,25.50
2018-05-24T13:22:23.527Z,25.60
2018-05-24T13:24:52.632Z,25.50
2018-05-24T13:27:21.215Z,25.50
2018-05-24T13:29:50.005Z,25.70
2018-05-24T13:32:18.332Z,25.60
2018-05-24T13:34:46.596Z,25.50
2018-05-24T13:37:14.897Z,25.40
2018-05-24T13:39:43.196Z,25.40
2018-05-24T13:42:11.462Z,25.40
2018-05-24T13:44:39.731Z,25.40
2018-05-24T13:47:08.351Z,25.40
2018-05-24T13:49:37.352Z,25.00
2018-05-24T13:52:06.384Z,25.00
2018-05-24T13:54:34.683Z,24.90
2018-05-24T13:57:02.940Z,24.70
2018-05-24T13:59:31.196Z,24.60
2018-05-24T14:01:59.513Z,24.60
2018-05-24T14:04:27.798Z,24.60
2018-05-24T14:06:56.088Z,24.70
2018-05-24T14:09:24.388Z,24.80
2018-05-24T14:11:53.455Z,24.60
2018-05-24T14:14:21.791Z,24.60
2018-05-24T14:16:50.222Z,24.70
2018-05-24T14:19:18.496Z,24.80
2018-05-24T14:21:47.745Z,25.00
2018-05-24T14:24:16.067Z,25.10
2018-05-24T14:26:44.283Z,25.30
2018-05-24T14:29:12.582Z,25.60
2018-05-24T14:31:41.326Z,25.80
2018-05-24T14:34:11.263Z,25.80
2018-05-24T14:36:39.553Z,25.80
2018-05-24T14:39:09.896Z,26.00
2018-05-24T14:41:38.196Z,26.10
2018-05-24T14:44:06.564Z,26.10
2018-05-24T14:46:34.834Z,26.30
2018-05-24T14:49:04.258Z,26.30
2018-05-24T14:51:32.634Z,26.50
2018-05-24T14:54:00.897Z,26.40
2018-05-24T14:56:29.183Z,26.30
2018-05-24T14:58:57.558Z,26.30
2018-05-24T15:01:25.815Z,26.40
2018-05-24T15:03:54.112Z,26.20
2018-05-24T15:06:22.394Z,26.00
2018-05-24T15:08:50.652Z,26.00
2018-05-24T15:11:18.903Z,25.90
2018-05-24T15:13:50.559Z,25.60
2018-05-24T15:16:18.817Z,25.70
2018-05-24T15:18:47.106Z,25.60
2018-05-24T15:21:15.486Z,25.70
2018-05-24T15:23:43.759Z,25.80
2018-05-24T15:26:12.019Z,25.60
2018-05-24T15:28:40.315Z,25.60
2018-05-24T15:31:08.567Z,25.60
2018-05-24T15:33:36.860Z,25.60
2018-05-24T15:36:05.160Z,25.60
2018-05-24T15:38:33.605Z,25.60
2018-05-24T15:41:02.624Z,25.40
2018-05-24T15:43:30.912Z,25.40
2018-05-24T15:45:59.224Z,25.30
2018-05-24T15:48:27.835Z,25.30
2018-05-24T15:50:56.087Z,25.20
2018-05-24T15:53:25.125Z,25.30
2018-05-24T15:55:53.383Z,25.20
2018-05-24T15:58:21.653Z,25.20
2018-05-24T16:00:49.937Z,25.20
2018-05-24T16:03:18.196Z,25.00
2018-05-24T16:05:46.438Z,24.90
2018-05-24T16:08:14.807Z,24.80
2018-05-24T16:10:43.069Z,24.80
2018-05-24T16:13:11.321Z,24.80
2018-05-24T16:15:39.639Z,24.80
2018-05-24T16:18:07.920Z,24.60
2018-05-24T16:20:36.266Z,24.60
2018-05-24T16:23:04.582Z,24.60
2018-05-24T16:25:32.812Z,24.60
2018-05-24T16:28:01.110Z,24.60
2018-05-24T16:30:29.390Z,24.60
2018-05-24T16:32:57.659Z,24.60
2018-05-24T16:35:25.937Z,24.30
2018-05-24T16:37:54.244Z,24.30
2018-05-24T16:40:22.484Z,24.30
2018-05-24T16:42:50.848Z,24.30
2018-05-24T16:45:19.141Z,24.20
2018-05-24T16:47:47.440Z,24.30
2018-05-24T16:50:15.803Z,24.30
2018-05-24T16:52:44.036Z,24.20
2018-05-24T16:55:12.344Z,24.10
2018-05-24T16:57:40.649Z,23.90
2018-05-24T17:00:08.925Z,23.80
2018-05-24T17:02:37.279Z,23.80
2018-05-24T17:05:05.536Z,23.70
2018-05-24T17:07:33.800Z,23.70
2018-05-24T17:10:02.099Z,23.70
2018-05-24T17:12:30.561Z,23.60
2018-05-24T17:14:59.602Z,23.40
2018-05-24T17:17:27.972Z,23.30
2018-05-24T17:19:56.245Z,23.30
2018-05-24T17:22:24.556Z,23.30
2018-05-24T17:24:53.640Z,23.20
2018-05-24T17:27:21.861Z,23.20
2018-05-24T17:29:50.163Z,23.20
2018-05-24T17:32:18.425Z,23.00
2018-05-24T17:34:46.697Z,23.00
2018-05-24T17:37:15.006Z,23.00
2018-05-24T17:39:43.281Z,23.00
2018-05-24T17:42:11.635Z,23.00
2018-05-24T17:44:39.941Z,22.90
2018-05-24T17:47:08.315Z,22.70
2018-05-24T17:49:36.594Z,22.60
2018-05-24T17:52:04.863Z,22.60
2018-05-24T17:54:33.474Z,22.50
2018-05-24T17:57:02.509Z,22.20
2018-05-24T17:59:30.770Z,22.20
2018-05-24T18:01:59.047Z,22.10
2018-05-24T18:04:27.341Z,22.10
2018-05-24T18:06:55.603Z,22.00
2018-05-24T18:09:23.924Z,21.90
2018-05-24T18:11:52.194Z,21.90
2018-05-24T18:14:20.495Z,21.90
2018-05-24T18:16:48.760Z,21.90
2018-05-24T18:19:17.061Z,21.90
2018-05-24T18:21:46.077Z,21.60
2018-05-24T18:24:14.408Z,21.60
2018-05-24T18:26:42.717Z,21.60
2018-05-24T18:29:11.730Z,21.40
2018-05-24T18:31:40.037Z,21.40
2018-05-24T18:34:08.533Z,21.40
2018-05-24T18:36:36.798Z,21.30
2018-05-24T18:39:06.008Z,21.20
2018-05-24T18:41:34.292Z,21.20
2018-05-24T18:44:02.623Z,21.10
2018-05-24T18:46:30.935Z,21.00
2018-05-24T18:48:59.220Z,20.80
2018-05-24T18:51:27.541Z,20.70
2018-05-24T18:53:55.826Z,20.60
2018-05-24T18:56:24.134Z,20.50
2018-05-24T18:58:52.422Z,20.40
2018-05-24T19:01:20.697Z,20.30
2018-05-24T19:03:48.997Z,20.30
2018-05-24T19:06:18.053Z,20.10
2018-05-24T19:08:46.357Z,20.10
2018-05-24T19:11:14.829Z,20.00
2018-05-24T19:13:43.205Z,19.90
2018-05-24T19:16:11.474Z,19.80
2018-05-24T19:18:39.782Z,19.80
2018-05-24T19:21:08.055Z,19.70
2018-05-24T19:23:37.136Z,19.60
2018-05-24T19:26:05.991Z,19.50
2018-05-24T19:28:34.264Z,19.50
2018-05-24T19:31:03.248Z,19.40
2018-05-24T19:33:31.548Z,19.40
2018-05-24T19:35:59.816Z,19.30
2018-05-24T19:38:28.125Z,19.30
2018-05-24T19:40:56.466Z,19.30
2018-05-24T19:43:24.781Z,19.20
2018-05-24T19:45:53.052Z,19.10
2018-05-24T19:48:21.369Z,19.10
2018-05-24T19:50:49.649Z,19.00
2018-05-24T19:53:18.352Z,19.00
2018-05-24T19:55:46.837Z,18.90
2018-05-24T19:58:15.965Z,18.80
2018-05-24T20:00:44.284Z,18.70
2018-05-24T20:03:12.561Z,18.80
2018-05-24T20:05:40.915Z,18.70
2018-05-24T20:08:09.575Z,18.70
2018-05-24T20:10:37.881Z,18.60
2018-05-24T20:13:06.983Z,18.50
2018-05-24T20:15:35.272Z,18.50
2018-05-24T20:18:03.560Z,18.50
2018-05-24T20:20:31.848Z,18.40
2018-05-24T20:23:00.139Z,18.40
2018-05-24T20:25:28.739Z,18.30
2018-05-24T20:27:57.831Z,18.20
2018-05-24T20:30:26.104Z,18.20
2018-05-24T20:32:54.531Z,18.20
2018-05-24T20:35:22.899Z,18.10
2018-05-24T20:37:51.168Z,18.10
2018-05-24T20:40:19.527Z,18.10
2018-05-24T20:42:48.206Z,18.00
2018-05-24T20:45:17.610Z,17.90
2018-05-24T20:47:46.666Z,17.90
2018-05-24T20:50:15.290Z,17.90
2018-05-24T20:52:45.003Z,17.80
2018-05-24T20:55:13.491Z,17.80
2018-05-24T20:57:42.591Z,17.70
2018-05-24T21:00:10.846Z,17.70
2018-05-24T21:02:40.677Z,17.60
2018-05-24T21:05:09.249Z,17.60
2018-05-24T21:07:38.415Z,17.60
2018-05-24T21:10:07.505Z,17.60
2018-05-24T21:12:36.098Z,17.50
2018-05-24T21:15:04.705Z,17.60
2018-05-24T21:17:34.794Z,17.50
2018-05-24T21:20:03.229Z,17.40
2018-05-24T21:22:31.487Z,17.40
2018-05-24T21:24:59.741Z,17.40
2018-05-24T21:27:27.995Z,17.40
2018-05-24T21:29:56.325Z,17.30
2018-05-24T21:32:24.901Z,17.30
2018-05-24T21:34:53.176Z,17.30
2018-05-24T21:37:22.442Z,17.20
2018-05-24T21:39:50.725Z,17.20
2018-05-24T21:42:19.003Z,17.20
2018-05-24T21:44:47.273Z,17.20
2018-05-24T21:47:15.562Z,17.10
2018-05-24T21:49:43.832Z,17.00
2018-05-24T21:52:12.126Z,17.10
2018-05-24T21:54:40.360Z,17.10
2018-05-24T21:57:08.679Z,17.10
2018-05-24T21:59:36.961Z,17.00
2018-05-24T22:02:05.359Z,17.00
2018-05-24T22:04:33.678Z,17.00
2018-05-24T22:07:01.920Z,16.90
2018-05-24T22:09:30.225Z,16.90
2018-05-24T22:11:59.651Z,16.90
2018-05-24T22:14:28.151Z,16.80
2018-05-24T22:16:56.426Z,16.80
2018-05-24T22:19:24.664Z,16.80
2018-05-24T22:21:52.945Z,16.80
2018-05-24T22:24:21.253Z,16.80
2018-05-24T22:26:49.527Z,16.80
2018-05-24T22:29:17.853Z,16.70
2018-05-24T22:31:46.116Z,16.70
2018-05-24T22:34:14.718Z,16.70
2018-05-24T22:39:18.873Z,16.60
2018-05-24T22:41:47.158Z,16.60
2018-05-24T22:44:15.421Z,16.60
2018-05-24T22:46:43.690Z,16.60
2018-05-24T22:49:12.705Z,16.50
2018-05-24T22:51:41.064Z,16.50
2018-05-24T22:54:09.330Z,16.40
2018-05-24T22:56:37.577Z,16.40
2018-05-24T22:59:06.663Z,16.40
2018-05-24T23:01:35.830Z,16.40
2018-05-24T23:04:04.130Z,16.40
2018-05-24T23:06:33.192Z,16.30
2018-05-24T23:09:01.698Z,16.30
2018-05-24T23:11:29.931Z,16.30
2018-05-24T23:13:58.188Z,16.30
2018-05-24T23:16:26.504Z,16.20
2018-05-24T23:18:54.790Z,16.20
2018-05-24T23:21:23.040Z,16.20
2018-05-24T23:23:51.353Z,16.20
2018-05-24T23:26:22.404Z,16.20
2018-05-24T23:28:50.691Z,16.20
2018-05-24T23:31:19.742Z,16.10
2018-05-24T23:33:48.050Z,16.10
2018-05-24T23:36:17.080Z,16.10
2018-05-24T23:38:45.372Z,16.10
2018-05-24T23:41:13.646Z,16.00
2018-05-24T23:43:43.090Z,16.00
2018-05-24T23:46:11.362Z,16.00
2018-05-24T23:48:39.652Z,16.00
2018-05-24T23:51:08.696Z,15.90
2018-05-24T23:53:36.968Z,15.90
2018-05-24T23:56:05.242Z,15.90
2018-05-24T23:58:33.570Z,15.90
